sensor_id;sensor_type;location;lat;lon;timestamp;temperature;humidity
39777;DHT22;25453;48.162;14.510;2023-04-25T00:00:48;12.30;66.10
39777;DHT22;25453;48.162;14.510;2023-04-25T00:03:17;12.20;66.00
39777;DHT22;25453;48.162;14.510;2023-04-25T00:05:50;12.20;66.00
39777;DHT22;25453;48.162;14.510;2023-04-25T00:08:18;12.20;65.90
39777;DHT22;25453;48.162;14.510;2023-04-25T00:10:46;12.10;65.90
39777;DHT22;25453;48.162;14.510;2023-04-25T00:13:13;12.10;66.10
39777;DHT22;25453;48.162;14.510;2023-04-25T00:15:41;12.10;65.80
39777;DHT22;25453;48.162;14.510;2023-04-25T00:18:09;12.10;65.80
39777;DHT22;25453;48.162;14.510;2023-04-25T00:20:36;12.00;65.70
39777;DHT22;25453;48.162;14.510;2023-04-25T00:23:04;12.00;65.70
39777;DHT22;25453;48.162;14.510;2023-04-25T00:25:32;12.00;65.70
39777;DHT22;25453;48.162;14.510;2023-04-25T00:27:59;12.00;65.70
39777;DHT22;25453;48.162;14.510;2023-04-25T00:30:26;11.90;65.50
39777;DHT22;25453;48.162;14.510;2023-04-25T00:32:53;11.90;65.50
39777;DHT22;25453;48.162;14.510;2023-04-25T00:35:21;11.90;65.50
39777;DHT22;25453;48.162;14.510;2023-04-25T00:37:48;11.90;65.50
39777;DHT22;25453;48.162;14.510;2023-04-25T00:40:15;11.90;65.50
39777;DHT22;25453;48.162;14.510;2023-04-25T00:42:42;11.90;65.40
39777;DHT22;25453;48.162;14.510;2023-04-25T00:45:12;11.90;65.30
39777;DHT22;25453;48.162;14.510;2023-04-25T00:47:43;11.80;65.40
39777;DHT22;25453;48.162;14.510;2023-04-25T00:50:11;11.80;65.20
39777;DHT22;25453;48.162;14.510;2023-04-25T00:52:40;11.80;65.30
39777;DHT22;25453;48.162;14.510;2023-04-25T00:55:08;11.80;65.20
39777;DHT22;25453;48.162;14.510;2023-04-25T00:57:38;11.80;65.20
39777;DHT22;25453;48.162;14.510;2023-04-25T01:00:06;11.80;65.20
39777;DHT22;25453;48.162;14.510;2023-04-25T01:02:34;11.80;65.00
39777;DHT22;25453;48.162;14.510;2023-04-25T01:05:03;11.80;64.90
39777;DHT22;25453;48.162;14.510;2023-04-25T01:07:33;11.80;65.00
39777;DHT22;25453;48.162;14.510;2023-04-25T01:10:01;11.80;64.90
39777;DHT22;25453;48.162;14.510;2023-04-25T01:12:28;11.80;64.70
39777;DHT22;25453;48.162;14.510;2023-04-25T01:14:55;11.80;64.60
39777;DHT22;25453;48.162;14.510;2023-04-25T01:17:23;11.80;64.60
39777;DHT22;25453;48.162;14.510;2023-04-25T01:19:50;11.80;64.50
39777;DHT22;25453;48.162;14.510;2023-04-25T01:22:18;11.80;64.40
39777;DHT22;25453;48.162;14.510;2023-04-25T01:24:45;11.90;64.40
39777;DHT22;25453;48.162;14.510;2023-04-25T01:27:13;11.90;64.40
39777;DHT22;25453;48.162;14.510;2023-04-25T01:29:43;11.90;64.20
39777;DHT22;25453;48.162;14.510;2023-04-25T01:32:13;11.90;64.00
39777;DHT22;25453;48.162;14.510;2023-04-25T01:34:41;11.80;64.00
39777;DHT22;25453;48.162;14.510;2023-04-25T01:37:08;11.80;64.10
39777;DHT22;25453;48.162;14.510;2023-04-25T01:39:38;11.80;64.10
39777;DHT22;25453;48.162;14.510;2023-04-25T01:42:08;11.80;63.90
39777;DHT22;25453;48.162;14.510;2023-04-25T01:44:35;11.80;63.80
39777;DHT22;25453;48.162;14.510;2023-04-25T01:47:02;11.80;63.80
39777;DHT22;25453;48.162;14.510;2023-04-25T01:49:31;11.80;63.90
39777;DHT22;25453;48.162;14.510;2023-04-25T01:51:58;11.70;64.00
39777;DHT22;25453;48.162;14.510;2023-04-25T01:54:25;11.80;64.00
39777;DHT22;25453;48.162;14.510;2023-04-25T01:56:52;11.70;63.80
39777;DHT22;25453;48.162;14.510;2023-04-25T01:59:19;11.70;63.90
39777;DHT22;25453;48.162;14.510;2023-04-25T02:01:48;11.70;64.00
39777;DHT22;25453;48.162;14.510;2023-04-25T02:04:16;11.70;63.90
39777;DHT22;25453;48.162;14.510;2023-04-25T02:06:45;11.70;63.90
39777;DHT22;25453;48.162;14.510;2023-04-25T02:09:13;11.70;64.00
39777;DHT22;25453;48.162;14.510;2023-04-25T02:11:43;11.70;64.00
39777;DHT22;25453;48.162;14.510;2023-04-25T02:14:11;11.70;63.90
39777;DHT22;25453;48.162;14.510;2023-04-25T02:16:38;11.70;64.00
39777;DHT22;25453;48.162;14.510;2023-04-25T02:19:06;11.70;63.90
39777;DHT22;25453;48.162;14.510;2023-04-25T02:21:34;11.70;63.90
39777;DHT22;25453;48.162;14.510;2023-04-25T02:24:02;11.70;64.00
39777;DHT22;25453;48.162;14.510;2023-04-25T02:26:30;11.70;63.90
39777;DHT22;25453;48.162;14.510;2023-04-25T02:28:57;11.70;64.00
39777;DHT22;25453;48.162;14.510;2023-04-25T02:31:25;11.70;64.10
39777;DHT22;25453;48.162;14.510;2023-04-25T02:33:53;11.70;64.20
39777;DHT22;25453;48.162;14.510;2023-04-25T02:36:20;11.70;64.30
39777;DHT22;25453;48.162;14.510;2023-04-25T02:38:47;11.70;64.50
39777;DHT22;25453;48.162;14.510;2023-04-25T02:41:14;11.70;64.50
39777;DHT22;25453;48.162;14.510;2023-04-25T02:43:42;11.60;64.50
39777;DHT22;25453;48.162;14.510;2023-04-25T02:46:09;11.60;64.70
39777;DHT22;25453;48.162;14.510;2023-04-25T02:48:36;11.60;64.70
39777;DHT22;25453;48.162;14.510;2023-04-25T02:51:04;11.70;65.00
39777;DHT22;25453;48.162;14.510;2023-04-25T02:53:31;11.70;65.00
39777;DHT22;25453;48.162;14.510;2023-04-25T02:55:58;11.70;65.00
39777;DHT22;25453;48.162;14.510;2023-04-25T02:58:26;11.60;65.00
39777;DHT22;25453;48.162;14.510;2023-04-25T03:00:53;11.60;65.00
39777;DHT22;25453;48.162;14.510;2023-04-25T03:03:21;11.50;65.00
39777;DHT22;25453;48.162;14.510;2023-04-25T03:05:49;11.40;64.90
39777;DHT22;25453;48.162;14.510;2023-04-25T03:08:17;11.30;64.80
39777;DHT22;25453;48.162;14.510;2023-04-25T03:10:44;11.30;65.10
39777;DHT22;25453;48.162;14.510;2023-04-25T03:13:12;11.20;65.20
39777;DHT22;25453;48.162;14.510;2023-04-25T03:15:39;11.10;65.50
39777;DHT22;25453;48.162;14.510;2023-04-25T03:18:06;11.10;65.60
39777;DHT22;25453;48.162;14.510;2023-04-25T03:20:33;11.10;65.60
39777;DHT22;25453;48.162;14.510;2023-04-25T03:23:00;11.00;65.60
39777;DHT22;25453;48.162;14.510;2023-04-25T03:25:27;10.90;65.50
39777;DHT22;25453;48.162;14.510;2023-04-25T03:27:54;10.90;65.80
39777;DHT22;25453;48.162;14.510;2023-04-25T03:30:22;10.80;65.90
39777;DHT22;25453;48.162;14.510;2023-04-25T03:32:49;10.70;65.90
39777;DHT22;25453;48.162;14.510;2023-04-25T03:35:16;10.60;65.90
39777;DHT22;25453;48.162;14.510;2023-04-25T03:37:44;10.60;66.30
39777;DHT22;25453;48.162;14.510;2023-04-25T03:40:14;10.60;66.20
39777;DHT22;25453;48.162;14.510;2023-04-25T03:42:41;10.50;66.20
39777;DHT22;25453;48.162;14.510;2023-04-25T03:45:10;10.40;66.20
39777;DHT22;25453;48.162;14.510;2023-04-25T03:47:37;10.40;66.40
39777;DHT22;25453;48.162;14.510;2023-04-25T03:50:05;10.40;66.80
39777;DHT22;25453;48.162;14.510;2023-04-25T03:52:33;10.30;66.60
39777;DHT22;25453;48.162;14.510;2023-04-25T03:55:00;10.30;66.90
39777;DHT22;25453;48.162;14.510;2023-04-25T03:57:28;10.30;67.20
39777;DHT22;25453;48.162;14.510;2023-04-25T03:59:55;10.40;67.40
39777;DHT22;25453;48.162;14.510;2023-04-25T04:02:22;10.30;67.20
39777;DHT22;25453;48.162;14.510;2023-04-25T04:04:50;10.30;67.30
39777;DHT22;25453;48.162;14.510;2023-04-25T04:07:17;10.30;67.60
39777;DHT22;25453;48.162;14.510;2023-04-25T04:09:44;10.40;67.70
39777;DHT22;25453;48.162;14.510;2023-04-25T04:12:12;10.40;67.70
39777;DHT22;25453;48.162;14.510;2023-04-25T04:14:39;10.40;67.80
39777;DHT22;25453;48.162;14.510;2023-04-25T04:17:10;10.40;67.80
39777;DHT22;25453;48.162;14.510;2023-04-25T04:19:37;10.50;67.70
39777;DHT22;25453;48.162;14.510;2023-04-25T04:22:04;10.40;67.60
39777;DHT22;25453;48.162;14.510;2023-04-25T04:24:32;10.40;67.50
39777;DHT22;25453;48.162;14.510;2023-04-25T04:26:59;10.40;67.70
39777;DHT22;25453;48.162;14.510;2023-04-25T04:29:27;10.40;67.70
39777;DHT22;25453;48.162;14.510;2023-04-25T04:31:54;10.40;67.80
39777;DHT22;25453;48.162;14.510;2023-04-25T04:34:21;10.30;67.70
39777;DHT22;25453;48.162;14.510;2023-04-25T04:36:48;10.30;67.80
39777;DHT22;25453;48.162;14.510;2023-04-25T04:39:16;10.30;67.80
39777;DHT22;25453;48.162;14.510;2023-04-25T04:41:43;10.30;68.00
39777;DHT22;25453;48.162;14.510;2023-04-25T04:44:11;10.30;68.10
39777;DHT22;25453;48.162;14.510;2023-04-25T04:46:39;10.30;68.40
39777;DHT22;25453;48.162;14.510;2023-04-25T04:49:09;10.30;68.60
39777;DHT22;25453;48.162;14.510;2023-04-25T04:51:37;10.40;68.80
39777;DHT22;25453;48.162;14.510;2023-04-25T04:54:04;10.40;68.90
39777;DHT22;25453;48.162;14.510;2023-04-25T04:56:32;10.50;69.00
39777;DHT22;25453;48.162;14.510;2023-04-25T04:58:59;10.50;69.10
39777;DHT22;25453;48.162;14.510;2023-04-25T05:01:26;10.60;69.20
39777;DHT22;25453;48.162;14.510;2023-04-25T05:03:53;10.70;69.30
39777;DHT22;25453;48.162;14.510;2023-04-25T05:06:22;10.80;69.40
39777;DHT22;25453;48.162;14.510;2023-04-25T05:08:50;10.80;69.40
39777;DHT22;25453;48.162;14.510;2023-04-25T05:11:18;10.90;69.40
39777;DHT22;25453;48.162;14.510;2023-04-25T05:13:45;11.00;69.40
39777;DHT22;25453;48.162;14.510;2023-04-25T05:16:12;11.10;69.40
39777;DHT22;25453;48.162;14.510;2023-04-25T05:18:39;11.10;69.40
39777;DHT22;25453;48.162;14.510;2023-04-25T05:21:10;11.20;69.40
39777;DHT22;25453;48.162;14.510;2023-04-25T05:23:38;11.20;69.20
39777;DHT22;25453;48.162;14.510;2023-04-25T05:26:05;11.30;69.30
39777;DHT22;25453;48.162;14.510;2023-04-25T05:28:32;11.30;69.10
39777;DHT22;25453;48.162;14.510;2023-04-25T05:30:59;11.30;69.10
39777;DHT22;25453;48.162;14.510;2023-04-25T05:33:28;11.30;69.20
39777;DHT22;25453;48.162;14.510;2023-04-25T05:35:55;11.40;69.30
39777;DHT22;25453;48.162;14.510;2023-04-25T05:38:22;11.40;69.30
39777;DHT22;25453;48.162;14.510;2023-04-25T05:40:49;11.50;69.30
39777;DHT22;25453;48.162;14.510;2023-04-25T05:43:17;11.50;69.30
39777;DHT22;25453;48.162;14.510;2023-04-25T05:45:44;11.60;69.30
39777;DHT22;25453;48.162;14.510;2023-04-25T05:48:11;11.70;69.30
39777;DHT22;25453;48.162;14.510;2023-04-25T05:50:38;11.80;69.20
39777;DHT22;25453;48.162;14.510;2023-04-25T05:53:06;11.90;69.20
39777;DHT22;25453;48.162;14.510;2023-04-25T05:55:33;11.90;68.90
39777;DHT22;25453;48.162;14.510;2023-04-25T05:58:00;11.90;68.60
39777;DHT22;25453;48.162;14.510;2023-04-25T06:00:27;12.00;68.70
39777;DHT22;25453;48.162;14.510;2023-04-25T06:02:55;12.00;68.70
39777;DHT22;25453;48.162;14.510;2023-04-25T06:05:23;12.10;68.70
39777;DHT22;25453;48.162;14.510;2023-04-25T06:07:50;12.10;68.50
39777;DHT22;25453;48.162;14.510;2023-04-25T06:10:17;12.20;68.30
39777;DHT22;25453;48.162;14.510;2023-04-25T06:12:45;12.20;68.20
39777;DHT22;25453;48.162;14.510;2023-04-25T06:15:12;12.20;68.10
39777;DHT22;25453;48.162;14.510;2023-04-25T06:17:53;12.20;68.00
39777;DHT22;25453;48.162;14.510;2023-04-25T06:20:21;12.20;68.00
39777;DHT22;25453;48.162;14.510;2023-04-25T06:22:50;12.20;68.10
39777;DHT22;25453;48.162;14.510;2023-04-25T06:25:18;12.20;68.20
39777;DHT22;25453;48.162;14.510;2023-04-25T06:27:46;12.20;68.20
39777;DHT22;25453;48.162;14.510;2023-04-25T06:30:13;12.30;68.30
39777;DHT22;25453;48.162;14.510;2023-04-25T06:32:41;12.30;68.30
39777;DHT22;25453;48.162;14.510;2023-04-25T06:35:08;12.30;68.50
39777;DHT22;25453;48.162;14.510;2023-04-25T06:37:36;12.40;68.70
39777;DHT22;25453;48.162;14.510;2023-04-25T06:40:03;12.40;68.90
39777;DHT22;25453;48.162;14.510;2023-04-25T06:42:30;12.50;68.90
39777;DHT22;25453;48.162;14.510;2023-04-25T06:44:58;12.50;68.90
39777;DHT22;25453;48.162;14.510;2023-04-25T06:47:25;12.50;68.70
39777;DHT22;25453;48.162;14.510;2023-04-25T06:49:52;12.60;68.70
39777;DHT22;25453;48.162;14.510;2023-04-25T06:52:20;12.60;68.70
39777;DHT22;25453;48.162;14.510;2023-04-25T06:54:47;12.70;68.60
39777;DHT22;25453;48.162;14.510;2023-04-25T06:57:16;12.70;68.50
39777;DHT22;25453;48.162;14.510;2023-04-25T06:59:44;12.80;68.40
39777;DHT22;25453;48.162;14.510;2023-04-25T07:02:11;12.80;68.30
39777;DHT22;25453;48.162;14.510;2023-04-25T07:04:39;12.80;68.20
39777;DHT22;25453;48.162;14.510;2023-04-25T07:07:06;12.80;68.20
39777;DHT22;25453;48.162;14.510;2023-04-25T07:09:34;12.90;68.00
39777;DHT22;25453;48.162;14.510;2023-04-25T07:12:01;12.90;67.80
39777;DHT22;25453;48.162;14.510;2023-04-25T07:14:28;12.90;67.70
39777;DHT22;25453;48.162;14.510;2023-04-25T07:16:55;12.90;67.70
39777;DHT22;25453;48.162;14.510;2023-04-25T07:19:24;12.90;67.60
39777;DHT22;25453;48.162;14.510;2023-04-25T07:21:53;13.00;67.40
39777;DHT22;25453;48.162;14.510;2023-04-25T07:24:22;12.90;67.20
39777;DHT22;25453;48.162;14.510;2023-04-25T07:26:49;13.00;67.20
39777;DHT22;25453;48.162;14.510;2023-04-25T07:29:16;13.00;67.30
39777;DHT22;25453;48.162;14.510;2023-04-25T07:31:43;13.10;67.30
39777;DHT22;25453;48.162;14.510;2023-04-25T07:34:11;13.10;67.30
39777;DHT22;25453;48.162;14.510;2023-04-25T07:36:42;13.20;67.00
39777;DHT22;25453;48.162;14.510;2023-04-25T07:39:15;13.30;66.60
39777;DHT22;25453;48.162;14.510;2023-04-25T07:41:44;13.30;66.30
39777;DHT22;25453;48.162;14.510;2023-04-25T07:44:11;13.40;65.80
39777;DHT22;25453;48.162;14.510;2023-04-25T07:46:39;13.40;65.60
39777;DHT22;25453;48.162;14.510;2023-04-25T07:49:06;13.40;65.20
39777;DHT22;25453;48.162;14.510;2023-04-25T07:51:33;13.40;64.90
39777;DHT22;25453;48.162;14.510;2023-04-25T07:54:00;13.30;64.70
39777;DHT22;25453;48.162;14.510;2023-04-25T07:56:28;13.30;64.60
39777;DHT22;25453;48.162;14.510;2023-04-25T07:59:10;13.30;64.70
39777;DHT22;25453;48.162;14.510;2023-04-25T08:01:38;13.30;64.80
39777;DHT22;25453;48.162;14.510;2023-04-25T08:04:05;13.40;64.70
39777;DHT22;25453;48.162;14.510;2023-04-25T08:06:33;13.40;64.60
39777;DHT22;25453;48.162;14.510;2023-04-25T08:09:03;13.40;64.50
39777;DHT22;25453;48.162;14.510;2023-04-25T08:11:31;13.40;64.40
39777;DHT22;25453;48.162;14.510;2023-04-25T08:13:58;13.40;64.50
39777;DHT22;25453;48.162;14.510;2023-04-25T08:16:25;13.50;64.60
39777;DHT22;25453;48.162;14.510;2023-04-25T08:18:52;13.60;64.40
39777;DHT22;25453;48.162;14.510;2023-04-25T08:21:20;13.60;64.00
39777;DHT22;25453;48.162;14.510;2023-04-25T08:23:47;13.60;63.60
39777;DHT22;25453;48.162;14.510;2023-04-25T08:26:14;13.60;63.40
39777;DHT22;25453;48.162;14.510;2023-04-25T08:28:42;13.60;62.90
39777;DHT22;25453;48.162;14.510;2023-04-25T08:31:09;13.50;63.00
39777;DHT22;25453;48.162;14.510;2023-04-25T08:33:38;13.40;63.00
39777;DHT22;25453;48.162;14.510;2023-04-25T08:36:05;13.40;63.30
39777;DHT22;25453;48.162;14.510;2023-04-25T08:38:32;13.40;63.50
39777;DHT22;25453;48.162;14.510;2023-04-25T08:41:01;13.50;63.60
39777;DHT22;25453;48.162;14.510;2023-04-25T08:43:29;13.60;63.80
39777;DHT22;25453;48.162;14.510;2023-04-25T08:45:58;13.70;63.70
39777;DHT22;25453;48.162;14.510;2023-04-25T08:48:27;13.90;63.40
39777;DHT22;25453;48.162;14.510;2023-04-25T08:50:55;13.90;63.00
39777;DHT22;25453;48.162;14.510;2023-04-25T08:53:27;14.00;63.10
39777;DHT22;25453;48.162;14.510;2023-04-25T08:55:56;14.10;62.90
39777;DHT22;25453;48.162;14.510;2023-04-25T08:58:23;14.20;62.90
39777;DHT22;25453;48.162;14.510;2023-04-25T09:00:51;14.30;62.40
39777;DHT22;25453;48.162;14.510;2023-04-25T09:03:18;14.40;61.60
39777;DHT22;25453;48.162;14.510;2023-04-25T09:05:46;14.40;61.40
39777;DHT22;25453;48.162;14.510;2023-04-25T09:08:13;14.40;60.90
39777;DHT22;25453;48.162;14.510;2023-04-25T09:10:40;14.40;60.70
39777;DHT22;25453;48.162;14.510;2023-04-25T09:13:14;14.50;61.10
39777;DHT22;25453;48.162;14.510;2023-04-25T09:15:51;14.60;61.10
39777;DHT22;25453;48.162;14.510;2023-04-25T09:18:32;14.70;60.70
39777;DHT22;25453;48.162;14.510;2023-04-25T09:23:48;14.90;60.10
39777;DHT22;25453;48.162;14.510;2023-04-25T09:26:19;15.00;60.30
39777;DHT22;25453;48.162;14.510;2023-04-25T09:28:47;15.20;60.00
39777;DHT22;25453;48.162;14.510;2023-04-25T09:31:23;15.20;59.30
39777;DHT22;25453;48.162;14.510;2023-04-25T09:33:58;15.20;58.90
39777;DHT22;25453;48.162;14.510;2023-04-25T09:36:26;15.10;58.90
39777;DHT22;25453;48.162;14.510;2023-04-25T09:38:54;14.90;58.80
39777;DHT22;25453;48.162;14.510;2023-04-25T09:41:23;14.80;59.00
39777;DHT22;25453;48.162;14.510;2023-04-25T09:43:51;14.70;59.30
39777;DHT22;25453;48.162;14.510;2023-04-25T09:46:18;14.60;59.40
39777;DHT22;25453;48.162;14.510;2023-04-25T09:48:49;14.60;59.50
39777;DHT22;25453;48.162;14.510;2023-04-25T09:51:17;14.60;60.30
39777;DHT22;25453;48.162;14.510;2023-04-25T09:53:46;14.80;60.90
39777;DHT22;25453;48.162;14.510;2023-04-25T09:56:18;15.10;61.30
39777;DHT22;25453;48.162;14.510;2023-04-25T09:58:46;15.40;60.90
39777;DHT22;25453;48.162;14.510;2023-04-25T10:01:14;15.70;60.00
39777;DHT22;25453;48.162;14.510;2023-04-25T10:03:46;15.90;59.80
39777;DHT22;25453;48.162;14.510;2023-04-25T10:06:19;16.20;59.30
39777;DHT22;25453;48.162;14.510;2023-04-25T10:09:14;16.50;59.10
39777;DHT22;25453;48.162;14.510;2023-04-25T10:11:44;16.70;57.60
39777;DHT22;25453;48.162;14.510;2023-04-25T10:14:20;16.60;56.50
39777;DHT22;25453;48.162;14.510;2023-04-25T10:16:48;16.40;55.90
39777;DHT22;25453;48.162;14.510;2023-04-25T10:19:15;16.20;55.70
39777;DHT22;25453;48.162;14.510;2023-04-25T10:21:46;16.00;55.50
39777;DHT22;25453;48.162;14.510;2023-04-25T10:24:15;15.90;56.00
39777;DHT22;25453;48.162;14.510;2023-04-25T10:26:42;15.70;55.80
39777;DHT22;25453;48.162;14.510;2023-04-25T10:29:09;15.60;55.80
39777;DHT22;25453;48.162;14.510;2023-04-25T10:31:45;15.60;56.60
39777;DHT22;25453;48.162;14.510;2023-04-25T10:34:14;15.80;57.10
39777;DHT22;25453;48.162;14.510;2023-04-25T10:36:42;16.20;56.80
39777;DHT22;25453;48.162;14.510;2023-04-25T10:39:09;16.50;56.10
39777;DHT22;25453;48.162;14.510;2023-04-25T10:41:46;16.70;55.10
39777;DHT22;25453;48.162;14.510;2023-04-25T10:44:14;17.00;54.90
39777;DHT22;25453;48.162;14.510;2023-04-25T10:46:42;17.40;53.70
39777;DHT22;25453;48.162;14.510;2023-04-25T10:54:42;18.10;51.40
39777;DHT22;25453;48.162;14.510;2023-04-25T11:00:00;17.80;49.60
39777;DHT22;25453;48.162;14.510;2023-04-25T11:02:27;17.30;49.30
39777;DHT22;25453;48.162;14.510;2023-04-25T11:04:59;16.90;49.50
39777;DHT22;25453;48.162;14.510;2023-04-25T11:08:01;16.50;49.80
39777;DHT22;25453;48.162;14.510;2023-04-25T11:10:33;16.00;50.50
39777;DHT22;25453;48.162;14.510;2023-04-25T11:13:04;15.60;51.10
39777;DHT22;25453;48.162;14.510;2023-04-25T11:15:31;15.40;52.00
39777;DHT22;25453;48.162;14.510;2023-04-25T11:17:59;15.10;52.70
39777;DHT22;25453;48.162;14.510;2023-04-25T11:20:27;14.80;53.80
39777;DHT22;25453;48.162;14.510;2023-04-25T11:22:58;14.60;54.70
39777;DHT22;25453;48.162;14.510;2023-04-25T11:25:30;14.40;55.40
39777;DHT22;25453;48.162;14.510;2023-04-25T11:28:03;14.20;56.30
39777;DHT22;25453;48.162;14.510;2023-04-25T11:30:30;14.00;57.50
39777;DHT22;25453;48.162;14.510;2023-04-25T11:32:57;14.00;58.50
39777;DHT22;25453;48.162;14.510;2023-04-25T11:35:25;13.90;59.40
39777;DHT22;25453;48.162;14.510;2023-04-25T11:37:54;13.70;59.80
39777;DHT22;25453;48.162;14.510;2023-04-25T11:40:23;13.40;60.40
39777;DHT22;25453;48.162;14.510;2023-04-25T11:42:50;13.30;61.20
39777;DHT22;25453;48.162;14.510;2023-04-25T11:45:21;13.10;61.80
39777;DHT22;25453;48.162;14.510;2023-04-25T11:47:50;13.00;62.20
39777;DHT22;25453;48.162;14.510;2023-04-25T11:50:18;12.80;62.70
39777;DHT22;25453;48.162;14.510;2023-04-25T11:52:45;12.70;63.50
39777;DHT22;25453;48.162;14.510;2023-04-25T11:55:13;12.60;64.00
39777;DHT22;25453;48.162;14.510;2023-04-25T11:57:41;12.60;64.60
39777;DHT22;25453;48.162;14.510;2023-04-25T12:02:45;12.50;66.00
39777;DHT22;25453;48.162;14.510;2023-04-25T12:05:14;12.40;66.50
39777;DHT22;25453;48.162;14.510;2023-04-25T12:07:57;12.30;67.20
39777;DHT22;25453;48.162;14.510;2023-04-25T12:10:25;12.30;67.70
39777;DHT22;25453;48.162;14.510;2023-04-25T12:12:52;12.40;68.80
39777;DHT22;25453;48.162;14.510;2023-04-25T12:15:24;12.60;69.40
39777;DHT22;25453;48.162;14.510;2023-04-25T12:17:52;12.80;70.00
39777;DHT22;25453;48.162;14.510;2023-04-25T12:20:21;13.30;70.20
39777;DHT22;25453;48.162;14.510;2023-04-25T12:22:50;13.70;69.90
39777;DHT22;25453;48.162;14.510;2023-04-25T12:33:25;15.30;67.10
39777;DHT22;25453;48.162;14.510;2023-04-25T12:35:54;15.60;66.50
39777;DHT22;25453;48.162;14.510;2023-04-25T12:38:27;15.90;66.10
39777;DHT22;25453;48.162;14.510;2023-04-25T12:40:57;16.20;65.00
39777;DHT22;25453;48.162;14.510;2023-04-25T12:43:25;16.40;63.30
39777;DHT22;25453;48.162;14.510;2023-04-25T12:45:53;16.60;63.10
39777;DHT22;25453;48.162;14.510;2023-04-25T12:48:22;16.80;62.30
39777;DHT22;25453;48.162;14.510;2023-04-25T12:50:49;16.90;62.10
39777;DHT22;25453;48.162;14.510;2023-04-25T12:53:20;17.10;61.50
39777;DHT22;25453;48.162;14.510;2023-04-25T12:55:49;17.20;60.70
39777;DHT22;25453;48.162;14.510;2023-04-25T12:58:18;17.40;60.20
39777;DHT22;25453;48.162;14.510;2023-04-25T13:00:46;17.40;59.60
39777;DHT22;25453;48.162;14.510;2023-04-25T13:03:13;17.60;59.60
39777;DHT22;25453;48.162;14.510;2023-04-25T13:05:40;17.80;58.90
39777;DHT22;25453;48.162;14.510;2023-04-25T13:08:08;17.90;58.70
39777;DHT22;25453;48.162;14.510;2023-04-25T13:10:35;18.00;58.20
39777;DHT22;25453;48.162;14.510;2023-04-25T13:13:03;18.20;58.20
39777;DHT22;25453;48.162;14.510;2023-04-25T13:15:31;18.30;57.50
39777;DHT22;25453;48.162;14.510;2023-04-25T13:18:00;18.20;56.60
39777;DHT22;25453;48.162;14.510;2023-04-25T13:20:28;18.00;55.90
39777;DHT22;25453;48.162;14.510;2023-04-25T13:22:55;17.60;55.80
39777;DHT22;25453;48.162;14.510;2023-04-25T13:25:22;17.20;56.00
39777;DHT22;25453;48.162;14.510;2023-04-25T13:27:51;16.60;56.30
39777;DHT22;25453;48.162;14.510;2023-04-25T13:30:18;16.10;56.90
39777;DHT22;25453;48.162;14.510;2023-04-25T13:32:45;15.70;58.00
39777;DHT22;25453;48.162;14.510;2023-04-25T13:35:13;15.40;59.50
39777;DHT22;25453;48.162;14.510;2023-04-25T13:37:40;15.30;60.90
39777;DHT22;25453;48.162;14.510;2023-04-25T13:40:08;15.40;62.00
39777;DHT22;25453;48.162;14.510;2023-04-25T13:42:37;15.60;62.30
39777;DHT22;25453;48.162;14.510;2023-04-25T13:45:04;15.90;62.40
39777;DHT22;25453;48.162;14.510;2023-04-25T13:47:32;16.10;62.00
39777;DHT22;25453;48.162;14.510;2023-04-25T13:50:01;16.40;61.90
39777;DHT22;25453;48.162;14.510;2023-04-25T13:52:30;16.60;61.60
39777;DHT22;25453;48.162;14.510;2023-04-25T13:54:57;16.80;60.90
39777;DHT22;25453;48.162;14.510;2023-04-25T13:57:25;16.90;60.20
39777;DHT22;25453;48.162;14.510;2023-04-25T13:59:52;16.90;59.70
39777;DHT22;25453;48.162;14.510;2023-04-25T14:02:20;16.80;59.40
39777;DHT22;25453;48.162;14.510;2023-04-25T14:04:48;16.80;59.50
39777;DHT22;25453;48.162;14.510;2023-04-25T14:07:15;16.80;59.30
39777;DHT22;25453;48.162;14.510;2023-04-25T14:09:43;16.80;59.20
39777;DHT22;25453;48.162;14.510;2023-04-25T14:12:13;16.70;58.80
39777;DHT22;25453;48.162;14.510;2023-04-25T14:14:40;16.60;59.00
39777;DHT22;25453;48.162;14.510;2023-04-25T14:17:08;16.40;58.40
39777;DHT22;25453;48.162;14.510;2023-04-25T14:19:35;16.10;58.50
39777;DHT22;25453;48.162;14.510;2023-04-25T14:22:04;15.80;58.80
39777;DHT22;25453;48.162;14.510;2023-04-25T14:24:31;15.60;58.90
39777;DHT22;25453;48.162;14.510;2023-04-25T14:26:58;15.40;59.20
39777;DHT22;25453;48.162;14.510;2023-04-25T14:29:26;15.20;59.20
39777;DHT22;25453;48.162;14.510;2023-04-25T14:31:53;15.00;59.60
39777;DHT22;25453;48.162;14.510;2023-04-25T14:34:21;14.90;60.10
39777;DHT22;25453;48.162;14.510;2023-04-25T14:36:48;14.90;60.00
39777;DHT22;25453;48.162;14.510;2023-04-25T14:39:15;14.80;60.00
39777;DHT22;25453;48.162;14.510;2023-04-25T14:41:46;14.70;59.80
39777;DHT22;25453;48.162;14.510;2023-04-25T14:44:14;14.60;59.80
39777;DHT22;25453;48.162;14.510;2023-04-25T14:46:42;14.60;60.10
39777;DHT22;25453;48.162;14.510;2023-04-25T14:49:13;14.50;60.30
39777;DHT22;25453;48.162;14.510;2023-04-25T14:51:42;14.50;60.40
39777;DHT22;25453;48.162;14.510;2023-04-25T14:54:09;14.50;60.40
39777;DHT22;25453;48.162;14.510;2023-04-25T14:56:37;14.50;60.50
39777;DHT22;25453;48.162;14.510;2023-04-25T14:59:05;14.50;60.80
39777;DHT22;25453;48.162;14.510;2023-04-25T15:01:32;14.60;61.00
39777;DHT22;25453;48.162;14.510;2023-04-25T15:03:59;14.70;60.70
39777;DHT22;25453;48.162;14.510;2023-04-25T15:06:27;14.80;61.00
39777;DHT22;25453;48.162;14.510;2023-04-25T15:08:56;14.90;61.00
39777;DHT22;25453;48.162;14.510;2023-04-25T15:11:24;15.10;60.90
39777;DHT22;25453;48.162;14.510;2023-04-25T15:13:52;15.20;60.40
39777;DHT22;25453;48.162;14.510;2023-04-25T15:16:19;15.10;60.00
39777;DHT22;25453;48.162;14.510;2023-04-25T15:18:47;15.00;60.10
39777;DHT22;25453;48.162;14.510;2023-04-25T15:21:14;15.00;60.20
39777;DHT22;25453;48.162;14.510;2023-04-25T15:23:41;15.00;60.20
39777;DHT22;25453;48.162;14.510;2023-04-25T15:26:09;14.90;60.40
39777;DHT22;25453;48.162;14.510;2023-04-25T15:28:36;14.80;60.70
39777;DHT22;25453;48.162;14.510;2023-04-25T15:31:03;14.80;61.10
39777;DHT22;25453;48.162;14.510;2023-04-25T15:33:30;14.80;61.30
39777;DHT22;25453;48.162;14.510;2023-04-25T15:35:58;14.70;61.40
39777;DHT22;25453;48.162;14.510;2023-04-25T15:38:26;14.70;61.70
39777;DHT22;25453;48.162;14.510;2023-04-25T15:40:53;14.60;62.00
39777;DHT22;25453;48.162;14.510;2023-04-25T15:43:20;14.70;62.30